Time;durP1;ratioP1;P1;durP2;ratioP2;P2;SDS_P1;SDS_P2;PMS_P1;PMS_P2;Temp;Humidity;BMP_temperature;BMP_pressure;BME280_temperature;BME280_humidity;BME280_pressure;Samples;Min_cycle;Max_cycle;Signal;HPM_P1;HPM_P2
2022/10/26 00:00:05;;;;;;;5.22;2.45;;;;;;;12.04;100.00;96718.13;4961915;28;20057;-72
2022/10/26 00:02:31;;;;;;;10.18;2.45;;;;;;;12.19;100.00;96736.34;4967476;28;20046;-69
2022/10/26 00:04:57;;;;;;;5.32;2.45;;;;;;;12.29;100.00;96720.38;4964953;28;20050;-69
2022/10/26 00:07:22;;;;;;;6.85;2.22;;;;;;;12.25;100.00;96723.06;4963945;28;20054;-69
2022/10/26 00:09:48;;;;;;;7.35;2.13;;;;;;;12.21;100.00;96736.00;4967026;28;20042;-70
2022/10/26 00:12:13;;;;;;;5.57;2.42;;;;;;;12.26;100.00;96734.84;4964562;28;20046;-72
2022/10/26 00:14:39;;;;;;;7.28;2.10;;;;;;;12.28;100.00;96738.81;4968936;28;20043;-70
2022/10/26 00:17:04;;;;;;;10.18;2.22;;;;;;;12.17;100.00;96716.72;4989852;28;20050;-68
2022/10/26 00:19:33;;;;;;;5.55;2.20;;;;;;;12.20;100.00;96731.66;4981994;28;20183;-70
2022/10/26 00:21:59;;;;;;;4.97;2.08;;;;;;;12.16;100.00;96731.63;4982369;28;20129;-70
2022/10/26 00:24:24;;;;;;;7.70;2.45;;;;;;;12.00;100.00;96723.59;4975734;28;20201;-70
2022/10/26 00:26:50;;;;;;;8.55;2.33;;;;;;;12.02;100.00;96732.25;4980573;28;20093;-69
2022/10/26 00:29:17;;;;;;;7.95;2.38;;;;;;;12.07;100.00;96744.84;4976943;28;20055;-69
2022/10/26 00:31:42;;;;;;;6.60;2.17;;;;;;;12.03;100.00;96736.56;4983590;28;20093;-70
2022/10/26 00:34:10;;;;;;;5.72;2.15;;;;;;;12.07;100.00;96749.56;4976700;28;20034;-69
2022/10/26 00:36:35;;;;;;;7.93;2.20;;;;;;;12.04;100.00;96757.34;4985200;28;20468;-69
2022/10/26 00:39:01;;;;;;;9.25;2.10;;;;;;;12.10;100.00;96766.06;4992450;28;20137;-69
2022/10/26 00:41:30;;;;;;;6.63;2.17;;;;;;;12.15;100.00;96775.91;4985590;28;20052;-71
2022/10/26 00:43:55;;;;;;;5.65;1.90;;;;;;;12.12;100.00;96782.97;4986778;28;20046;-71
2022/10/26 00:46:31;;;;;;;7.28;2.80;;;;;;;12.00;100.00;96764.75;4966989;28;20136;-70
2022/10/26 00:49:07;;;;;;;7.20;2.00;;;;;;;12.13;100.00;96770.00;4965043;28;20479;-70
2022/10/26 00:51:43;;;;;;;7.53;2.20;;;;;;;12.14;100.00;96750.41;4979186;28;20046;-71
2022/10/26 00:54:19;;;;;;;6.78;2.22;;;;;;;12.16;100.00;96741.81;4979642;28;20049;-69
2022/10/26 00:56:48;;;;;;;6.05;2.45;;;;;;;12.07;100.00;96755.84;4976168;28;20155;-70
2022/10/26 00:59:15;;;;;;;5.38;2.10;;;;;;;12.02;100.00;96751.44;4960392;28;20456;-71
2022/10/26 01:01:43;;;;;;;5.20;2.15;;;;;;;11.71;100.00;96721.66;4965228;28;20043;-70
2022/10/26 01:04:09;;;;;;;6.75;1.95;;;;;;;11.39;100.00;96705.59;4968659;28;20046;-71
2022/10/26 01:06:36;;;;;;;8.43;2.33;;;;;;;11.31;100.00;96707.44;4966419;28;20043;-70
2022/10/26 01:09:03;;;;;;;4.05;1.85;;;;;;;11.40;100.00;96712.66;4963805;28;20045;-71
2022/10/26 01:11:29;;;;;;;6.55;2.55;;;;;;;11.29;100.00;96699.59;4964341;28;20042;-70
2022/10/26 01:13:57;;;;;;;8.15;2.50;;;;;;;11.15;100.00;96695.88;4984688;28;20041;-70
2022/10/26 01:16:57;;;;;;;4.97;2.20;;;;;;;11.13;100.00;96703.66;4978615;28;20832;-70
2022/10/26 01:19:41;;;;;;;5.85;2.60;;;;;;;11.20;100.00;96706.47;4957182;28;20989;-70
2022/10/26 01:22:30;;;;;;;7.90;2.17;;;;;;;11.26;100.00;96702.28;4961800;28;20050;-70
2022/10/26 01:25:30;;;;;;;6.73;2.83;;;;;;;11.28;100.00;96697.22;4962374;28;20046;-69
2022/10/26 01:27:56;;;;;;;7.97;2.58;;;;;;;11.24;100.00;96697.16;4983861;28;20390;-70
2022/10/26 01:30:44;;;;;;;6.20;2.70;;;;;;;11.22;100.00;96683.03;4980135;28;20049;-70
2022/10/26 01:33:45;;;;;;;8.73;2.83;;;;;;;11.21;100.00;96675.19;4978727;28;20542;-69
2022/10/26 01:36:43;;;;;;;8.38;2.72;;;;;;;11.18;100.00;96670.44;4981227;28;20073;-70
2022/10/26 01:39:35;;;;;;;7.53;2.67;;;;;;;11.14;100.00;96658.63;4979274;28;20059;-71
2022/10/26 01:42:03;;;;;;;8.20;3.55;;;;;;;11.06;100.00;96663.25;4982415;28;20053;-68
2022/10/26 01:44:35;;;;;;;9.48;4.35;;;;;;;10.95;100.00;96662.28;4980866;28;20042;-69
2022/10/26 01:47:03;;;;;;;14.88;3.22;;;;;;;11.02;100.00;96654.97;4983483;28;20038;-69
2022/10/26 01:49:37;;;;;;;7.05;3.08;;;;;;;11.03;100.00;96663.97;4980729;28;20041;-70
2022/10/26 01:52:03;;;;;;;6.72;3.15;;;;;;;10.98;100.00;96667.03;4991563;28;20057;-70
2022/10/26 01:54:29;;;;;;;11.63;3.45;;;;;;;10.95;100.00;96673.25;4998124;28;20049;-68
2022/10/26 01:56:59;;;;;;;7.88;3.10;;;;;;;10.94;100.00;96669.72;4991049;28;20046;-69
2022/10/26 01:59:33;;;;;;;9.90;2.97;;;;;;;10.94;100.00;96672.47;4995391;28;20053;-69
2022/10/26 02:02:36;;;;;;;7.22;2.88;;;;;;;10.94;100.00;96679.91;4984837;28;20087;-68
2022/10/26 02:05:10;;;;;;;11.27;3.20;;;;;;;10.89;100.00;96672.78;4962320;28;20063;-69
2022/10/26 02:08:03;;;;;;;8.40;2.85;;;;;;;10.85;100.00;96672.72;4981751;28;20043;-70
2022/10/26 02:10:54;;;;;;;7.78;3.03;;;;;;;11.02;100.00;96662.38;4962961;28;20569;-70
2022/10/26 02:13:32;;;;;;;7.05;3.22;;;;;;;10.93;100.00;96672.81;4958243;28;20050;-70
2022/10/26 02:16:09;;;;;;;7.30;2.55;;;;;;;10.79;100.00;96668.72;4963169;28;20073;-68
2022/10/26 02:18:57;;;;;;;8.77;2.97;;;;;;;10.84;100.00;96681.31;4968036;28;20050;-70
2022/10/26 02:21:29;;;;;;;4.22;2.60;;;;;;;10.86;100.00;96673.53;4977175;28;20386;-69
2022/10/26 02:23:57;;;;;;;7.72;3.03;;;;;;;10.85;100.00;96682.91;4974223;28;20116;-70
2022/10/26 02:26:27;;;;;;;7.82;2.88;;;;;;;10.86;100.00;96700.94;4959991;28;20158;-69
2022/10/26 02:28:56;;;;;;;4.32;2.60;;;;;;;10.87;100.00;96700.53;4997497;28;20042;-70
2022/10/26 02:31:24;;;;;;;6.63;3.00;;;;;;;11.00;100.00;96725.81;4971353;28;20422;-70
2022/10/26 02:33:51;;;;;;;7.55;2.83;;;;;;;11.33;100.00;96743.50;4978481;28;20050;-69
2022/10/26 02:36:24;;;;;;;10.85;2.90;;;;;;;11.41;100.00;96747.91;4959260;28;20134;-68
2022/10/26 02:38:51;;;;;;;7.45;2.90;;;;;;;11.48;100.00;96758.19;4963526;28;20043;-68
2022/10/26 02:41:20;;;;;;;8.43;2.33;;;;;;;11.46;100.00;96873.75;4958087;28;20074;-69
2022/10/26 02:43:58;;;;;;;9.40;2.70;;;;;;;11.21;100.00;96910.94;4963581;28;20047;-69
2022/10/26 02:46:26;;;;;;;5.72;3.95;;;;;;;11.38;100.00;96836.44;4967631;28;20054;-69
2022/10/26 02:48:51;;;;;;;11.65;4.30;;;;;;;11.46;100.00;96928.59;4980070;28;20073;-69
2022/10/26 02:51:23;;;;;;;12.35;4.53;;;;;;;11.49;100.00;96875.00;4976941;28;20456;-69
2022/10/26 02:53:59;;;;;;;17.45;5.63;;;;;;;11.53;100.00;96911.47;4967130;28;20097;-69
2022/10/26 02:56:31;;;;;;;12.70;4.90;;;;;;;11.66;100.00;96882.69;4958914;28;20130;-70
2022/10/26 02:59:01;;;;;;;12.80;5.45;;;;;;;11.86;100.00;96880.59;4963449;28;20142;-69
2022/10/26 03:01:28;;;;;;;8.43;4.97;;;;;;;12.01;100.00;96862.44;4971347;28;20047;-68
2022/10/26 03:03:57;;;;;;;13.18;5.80;;;;;;;12.06;100.00;96850.31;4981264;28;20250;-69
2022/10/26 03:06:23;;;;;;;10.60;5.57;;;;;;;12.11;100.00;96849.22;4978434;28;20057;-68
2022/10/26 03:08:49;;;;;;;17.45;6.05;;;;;;;12.15;100.00;96828.06;4984807;28;20038;-69
2022/10/26 03:11:15;;;;;;;14.40;5.38;;;;;;;12.13;100.00;96827.66;4976754;28;20046;-68
2022/10/26 03:13:40;;;;;;;8.38;5.05;;;;;;;12.04;100.00;96812.25;4980958;28;20043;-68
2022/10/26 03:16:06;;;;;;;9.32;4.40;;;;;;;11.87;100.00;96790.84;4951820;28;20050;-67
2022/10/26 03:18:31;;;;;;;8.43;4.82;;;;;;;11.64;100.00;96785.47;4963954;28;20476;-70
2022/10/26 03:20:57;;;;;;;18.77;7.70;;;;;;;11.66;100.00;96813.31;4960065;28;20043;-70
2022/10/26 03:23:22;;;;;;;11.48;5.25;;;;;;;11.67;100.00;96817.66;4959838;28;20562;-70
2022/10/26 03:25:47;;;;;;;12.32;5.18;;;;;;;11.71;100.00;96801.22;4964936;28;20042;-68
2022/10/26 03:28:13;;;;;;;13.05;5.25;;;;;;;11.86;100.00;96817.50;4958839;28;20503;-69
2022/10/26 03:30:38;;;;;;;9.48;5.40;;;;;;;11.78;100.00;96842.50;4966154;28;20050;-69
2022/10/26 03:33:04;;;;;;;11.95;5.22;;;;;;;11.83;100.00;96866.88;4962736;28;20475;-68
2022/10/26 03:35:30;;;;;;;14.85;5.97;;;;;;;11.59;100.00;96890.00;4963912;28;20108;-68
2022/10/26 03:37:55;;;;;;;13.93;6.97;;;;;;;11.44;100.00;96887.06;4963336;28;20134;-70
2022/10/26 03:40:21;;;;;;;13.95;7.18;;;;;;;11.41;100.00;96897.97;4959702;28;20047;-70
2022/10/26 03:42:46;;;;;;;10.85;7.07;;;;;;;11.56;100.00;96899.78;4964495;28;20480;-69
2022/10/26 03:45:12;;;;;;;21.00;7.65;;;;;;;11.67;100.00;96898.00;4961015;28;20035;-71
2022/10/26 03:47:47;;;;;;;9.50;5.63;;;;;;;11.61;100.00;96904.97;4965494;28;20070;-69
2022/10/26 03:50:15;;;;;;;9.88;5.85;;;;;;;11.74;100.00;96904.72;4962565;28;20125;-69
2022/10/26 03:52:40;;;;;;;11.35;6.22;;;;;;;11.71;100.00;96900.00;4976395;28;20073;-69
2022/10/26 03:55:06;;;;;;;14.02;6.13;;;;;;;11.80;100.00;96917.78;4963494;28;20047;-69
2022/10/26 03:57:32;;;;;;;11.25;6.38;;;;;;;11.84;100.00;96917.84;4962493;28;20361;-69
2022/10/26 03:59:57;;;;;;;12.77;6.78;;;;;;;11.86;100.00;96930.00;4965341;28;20105;-70
2022/10/26 04:02:23;;;;;;;10.60;6.13;;;;;;;11.96;100.00;96939.59;4960517;28;20055;-69
2022/10/26 04:04:48;;;;;;;11.63;6.93;;;;;;;11.84;100.00;96935.09;4980092;28;20023;-69
2022/10/26 04:07:14;;;;;;;11.65;6.70;;;;;;;11.70;100.00;96940.34;4982274;28;20046;-70
2022/10/26 04:09:39;;;;;;;14.63;7.57;;;;;;;11.45;100.00;96934.47;4986112;28;20376;-70
2022/10/26 04:12:05;;;;;;;20.17;8.93;;;;;;;11.29;100.00;96935.38;4977601;28;20141;-69
2022/10/26 04:14:31;;;;;;;16.27;8.90;;;;;;;11.26;100.00;96922.41;4983410;28;20049;-69
2022/10/26 04:16:56;;;;;;;16.00;9.32;;;;;;;11.21;100.00;96911.72;4959547;28;20042;-69
2022/10/26 04:19:22;;;;;;;19.27;10.73;;;;;;;11.19;100.00;96888.59;4961171;28;21348;-69
2022/10/26 04:21:50;;;;;;;22.65;13.55;;;;;;;11.25;100.00;96874.22;4965057;28;20047;-68
2022/10/26 04:24:15;;;;;;;29.33;15.05;;;;;;;11.33;100.00;96857.88;4962788;28;20518;-68
2022/10/26 04:26:40;;;;;;;25.80;15.95;;;;;;;11.33;100.00;96855.16;4982027;28;20053;-70
2022/10/26 04:29:06;;;;;;;26.20;16.27;;;;;;;11.33;100.00;96863.38;4980632;28;20057;-69
2022/10/26 04:31:32;;;;;;;35.75;18.23;;;;;;;11.36;100.00;96876.31;4976727;28;20733;-70
2022/10/26 04:33:57;;;;;;;26.73;16.77;;;;;;;11.32;100.00;96881.75;4984932;28;20133;-69
2022/10/26 04:36:23;;;;;;;30.85;16.13;;;;;;;11.29;100.00;96872.31;4978404;28;20642;-69
2022/10/26 04:38:48;;;;;;;27.17;16.73;;;;;;;11.30;100.00;96892.31;4978820;28;20495;-68
2022/10/26 04:41:14;;;;;;;28.15;16.85;;;;;;;11.26;100.00;96899.69;4961175;28;20117;-69
2022/10/26 04:43:40;;;;;;;30.55;17.88;;;;;;;11.23;100.00;96906.69;4965098;28;20038;-68
2022/10/26 04:46:05;;;;;;;33.13;18.15;;;;;;;11.21;100.00;96919.19;4960497;28;20495;-67
2022/10/26 04:48:31;;;;;;;29.35;17.63;;;;;;;11.17;100.00;96912.84;4971479;28;20125;-68
2022/10/26 04:51:00;;;;;;;27.52;17.17;;;;;;;11.17;100.00;96897.19;4975453;28;20043;-69
2022/10/26 04:53:26;;;;;;;28.17;17.88;;;;;;;11.18;100.00;96900.72;4981917;28;20395;-68
2022/10/26 04:55:59;;;;;;;27.38;16.73;;;;;;;11.18;100.00;96884.25;4982938;28;20046;-67
2022/10/26 04:58:24;;;;;;;22.95;15.18;;;;;;;11.24;100.00;96894.56;4979673;28;20044;-69
2022/10/26 05:00:50;;;;;;;22.80;14.73;;;;;;;11.28;100.00;96889.13;4977495;28;20038;-68
2022/10/26 05:03:15;;;;;;;22.85;14.10;;;;;;;11.31;100.00;96885.66;4935351;28;20043;-68
2022/10/26 05:05:41;;;;;;;22.15;13.88;;;;;;;11.40;100.00;96879.94;4983290;28;20137;-68
2022/10/26 05:08:09;;;;;;;24.50;14.05;;;;;;;11.53;100.00;96886.00;4979072;28;20050;-69
2022/10/26 05:10:35;;;;;;;25.45;13.95;;;;;;;11.41;100.00;96882.28;4962808;28;20041;-68
2022/10/26 05:13:01;;;;;;;17.27;10.95;;;;;;;11.41;100.00;96885.03;4983776;28;20050;-68
2022/10/26 05:15:27;;;;;;;17.45;11.60;;;;;;;11.44;100.00;96899.97;4979582;28;20325;-68
2022/10/26 05:18:01;;;;;;;20.33;11.73;;;;;;;11.48;100.00;96911.78;4984143;28;20077;-68
2022/10/26 05:20:30;;;;;;;17.65;10.63;;;;;;;11.48;100.00;96915.31;4972667;28;20057;-70
2022/10/26 05:23:07;;;;;;;20.55;11.30;;;;;;;11.29;100.00;96907.97;4979839;28;20034;-72
2022/10/26 05:25:35;;;;;;;18.98;11.43;;;;;;;11.21;100.00;96913.69;4979272;28;20073;-70
2022/10/26 05:28:03;;;;;;;19.10;10.93;;;;;;;11.18;100.00;96922.63;4983830;28;20073;-70
2022/10/26 05:30:30;;;;;;;17.92;11.63;;;;;;;11.16;100.00;96923.00;4979331;28;20050;-69
2022/10/26 05:32:57;;;;;;;17.23;10.90;;;;;;;11.21;100.00;96928.19;4977939;28;20074;-69
2022/10/26 05:35:24;;;;;;;20.02;10.48;;;;;;;11.29;100.00;96923.63;4977812;28;20879;-68
2022/10/26 05:37:50;;;;;;;21.65;10.98;;;;;;;11.32;100.00;96920.16;4982529;28;20142;-68
2022/10/26 05:40:16;;;;;;;16.70;9.88;;;;;;;11.27;100.00;96912.22;4959959;28;20053;-70
2022/10/26 05:42:42;;;;;;;17.58;10.75;;;;;;;11.29;100.00;96899.75;4965900;28;20046;-69
2022/10/26 05:45:08;;;;;;;17.60;11.25;;;;;;;11.31;100.00;96912.28;4977359;28;20495;-69
2022/10/26 05:47:41;;;;;;;17.83;11.13;;;;;;;11.14;100.00;96900.66;4978130;28;20081;-69
2022/10/26 05:50:08;;;;;;;18.67;11.68;;;;;;;10.89;100.00;96891.97;4958231;28;20142;-70
2022/10/26 05:52:45;;;;;;;23.00;13.10;;;;;;;10.80;100.00;96894.16;4963845;28;20047;-70
2022/10/26 05:55:15;;;;;;;25.60;13.90;;;;;;;10.75;100.00;96876.09;4956490;28;20038;-70
2022/10/26 05:57:42;;;;;;;21.08;13.30;;;;;;;10.74;100.00;96871.75;4980050;28;20050;-69
2022/10/26 06:00:11;;;;;;;22.52;14.88;;;;;;;10.72;100.00;96874.06;4959490;28;20077;-69
2022/10/26 06:03:10;;;;;;;22.13;13.52;;;;;;;10.93;100.00;96875.59;4962992;28;20076;-70
2022/10/26 06:05:51;;;;;;;20.02;11.75;;;;;;;11.13;100.00;96890.84;5000069;28;20046;-69
2022/10/26 06:08:16;;;;;;;17.85;11.75;;;;;;;11.29;100.00;96890.72;4975722;28;20844;-69
2022/10/26 06:10:42;;;;;;;16.95;11.35;;;;;;;11.34;100.00;96887.66;4956038;28;20055;-70
2022/10/26 06:13:08;;;;;;;14.63;9.85;;;;;;;11.38;100.00;96874.81;4958203;28;20043;-70
2022/10/26 06:15:47;;;;;;;17.73;10.90;;;;;;;11.08;100.00;96859.03;4963277;28;20054;-70
2022/10/26 06:18:19;;;;;;;;;;;;;;;11.06;100.00;96869.59;4952007;28;20120;-69
2022/10/26 06:21:07;;;;;;;15.10;9.25;;;;;;;11.21;100.00;96875.31;4978492;28;19960;-69
2022/10/26 06:23:51;;;;;;;17.05;11.00;;;;;;;11.21;100.00;96872.56;4983337;28;20042;-70
2022/10/26 06:27:05;;;;;;;15.52;10.30;;;;;;;11.39;100.00;96881.88;4977196;28;20113;-69
2022/10/26 06:29:42;;;;;;;13.60;9.65;;;;;;;11.53;100.00;96883.28;4941410;28;20404;-69
2022/10/26 06:32:09;;;;;;;19.15;8.98;;;;;;;11.61;100.00;96884.94;4956494;28;20079;-69
2022/10/26 06:34:38;;;;;;;13.45;9.05;;;;;;;11.67;100.00;96883.50;4964946;28;20411;-69
2022/10/26 06:37:04;;;;;;;13.70;8.60;;;;;;;11.71;100.00;96891.78;4965832;28;20434;-68
2022/10/26 06:39:34;;;;;;;12.45;8.27;;;;;;;11.58;100.00;96905.69;4969552;28;20078;-70
2022/10/26 06:42:00;;;;;;;16.65;8.48;;;;;;;11.54;100.00;96918.56;4984485;28;20042;-71
2022/10/26 06:44:26;;;;;;;13.90;8.00;;;;;;;11.60;100.00;96930.81;4972902;28;20062;-69
2022/10/26 06:47:49;;;;;;;15.52;8.73;;;;;;;11.91;100.00;96930.91;4981071;28;20034;-70
2022/10/26 06:50:46;;;;;;;11.45;7.63;;;;;;;11.96;100.00;96938.81;4951142;28;20046;-69
2022/10/26 06:53:24;;;;;;;12.10;8.65;;;;;;;11.67;100.00;96952.88;4945085;28;20195;-71
2022/10/26 06:55:50;;;;;;;16.58;9.63;;;;;;;11.55;100.00;96957.75;4962175;28;20054;-70
2022/10/26 06:58:21;;;;;;;15.15;9.70;;;;;;;11.43;100.00;96943.06;4962324;28;20440;-70
2022/10/26 07:00:52;;;;;;;20.30;13.13;;;;;;;11.47;100.00;96946.66;4972766;28;20049;-70
2022/10/26 07:03:18;;;;;;;20.08;10.20;;;;;;;11.41;100.00;96939.88;4982185;28;20046;-70
2022/10/26 07:05:44;;;;;;;17.58;9.55;;;;;;;11.47;100.00;96952.16;4984346;28;20069;-69
2022/10/26 07:08:09;;;;;;;18.13;9.13;;;;;;;11.62;100.00;96960.63;4983065;28;20042;-69
2022/10/26 07:10:37;;;;;;;14.30;8.13;;;;;;;11.75;100.00;96948.28;4985263;28;20141;-71
2022/10/26 07:13:05;;;;;;;18.38;11.65;;;;;;;11.85;100.00;96949.63;4984222;28;20487;-69
2022/10/26 07:15:32;;;;;;;16.48;11.15;;;;;;;11.74;100.00;96954.94;4985363;28;20061;-69
2022/10/26 07:17:57;;;;;;;18.27;13.13;;;;;;;11.75;100.00;96958.47;4985778;28;20046;-69
2022/10/26 07:20:23;;;;;;;20.23;11.35;;;;;;;11.81;100.00;96959.72;4980400;28;20179;-69
2022/10/26 07:22:52;;;;;;;14.40;10.32;;;;;;;11.80;100.00;96955.41;4986491;28;20191;-69
2022/10/26 07:25:18;;;;;;;34.53;24.40;;;;;;;11.59;100.00;96962.13;4981269;28;20129;-69
2022/10/26 07:27:43;;;;;;;180.27;111.47;;;;;;;11.50;100.00;96969.81;4987682;28;20115;-69
2022/10/26 07:30:09;;;;;;;37.30;23.92;;;;;;;11.48;100.00;96959.19;4982533;28;20151;-69
2022/10/26 07:32:34;;;;;;;55.20;31.85;;;;;;;11.39;100.00;96971.59;4985942;28;20042;-69
2022/10/26 07:35:00;;;;;;;26.33;17.88;;;;;;;11.44;100.00;96979.50;4986671;28;20046;-69
2022/10/26 07:37:26;;;;;;;21.15;11.80;;;;;;;11.66;100.00;96975.97;4982185;28;20042;-69
2022/10/26 07:39:51;;;;;;;17.08;8.93;;;;;;;11.87;100.00;96980.22;4966560;28;20047;-69
2022/10/26 07:42:18;;;;;;;14.15;9.13;;;;;;;12.08;100.00;96992.72;4959617;28;20108;-68
2022/10/26 07:44:43;;;;;;;17.88;8.90;;;;;;;12.27;100.00;96989.88;4966357;28;20046;-69
2022/10/26 07:47:09;;;;;;;15.52;7.40;;;;;;;12.45;100.00;96986.59;4963692;28;20045;-69
2022/10/26 07:49:34;;;;;;;12.10;6.95;;;;;;;12.49;100.00;96987.41;4972176;28;20423;-70
2022/10/26 07:52:00;;;;;;;8.68;6.30;;;;;;;12.53;100.00;96983.56;4975411;28;20514;-69
2022/10/26 07:54:25;;;;;;;11.93;6.28;;;;;;;12.66;100.00;96989.63;4981294;28;20484;-71
2022/10/26 07:56:51;;;;;;;11.73;6.70;;;;;;;12.68;100.00;96994.75;4970173;28;20039;-70
2022/10/26 07:59:17;;;;;;;12.88;6.70;;;;;;;12.75;100.00;97008.56;4963777;28;20460;-71
2022/10/26 08:01:43;;;;;;;16.25;9.40;;;;;;;12.80;100.00;97008.22;4970250;28;20401;-71
2022/10/26 08:04:08;;;;;;;12.63;6.50;;;;;;;12.80;100.00;96999.97;4961194;28;20515;-70
2022/10/26 08:06:34;;;;;;;14.30;6.70;;;;;;;12.77;100.00;96996.03;4966536;28;20043;-69
2022/10/26 08:08:59;;;;;;;9.65;5.95;;;;;;;12.83;100.00;97001.97;4972399;28;20035;-71
2022/10/26 08:11:25;;;;;;;20.80;11.55;;;;;;;12.97;100.00;97007.66;4993835;28;20047;-71
2022/10/26 08:13:52;;;;;;;15.18;9.40;;;;;;;13.14;100.00;97002.72;4995174;28;20049;-70
2022/10/26 08:16:17;;;;;;;12.77;7.57;;;;;;;13.21;100.00;97000.06;4968288;28;20421;-69
2022/10/26 08:18:43;;;;;;;12.55;6.10;;;;;;;13.34;100.00;97006.13;4985109;28;20081;-69
2022/10/26 08:21:10;;;;;;;10.68;5.75;;;;;;;13.04;100.00;97004.22;4983210;28;20495;-69
2022/10/26 08:23:36;;;;;;;16.15;6.95;;;;;;;12.90;100.00;97013.06;4988318;28;20045;-71
2022/10/26 08:26:02;;;;;;;10.43;6.10;;;;;;;13.16;100.00;97020.47;4976155;28;20404;-70
2022/10/26 08:28:29;;;;;;;11.88;5.30;;;;;;;13.36;100.00;97034.03;4982725;28;20054;-70
2022/10/26 08:30:55;;;;;;;10.20;6.28;;;;;;;13.22;100.00;97023.66;4985017;28;20042;-69
2022/10/26 08:33:21;;;;;;;8.50;5.63;;;;;;;13.32;100.00;97030.47;4979691;28;20435;-69
2022/10/26 08:35:46;;;;;;;12.85;5.80;;;;;;;13.60;100.00;97038.22;4985042;28;20081;-71
2022/10/26 08:38:11;;;;;;;13.32;5.78;;;;;;;13.68;100.00;97028.84;4978514;28;20035;-69
2022/10/26 08:40:40;;;;;;;13.82;5.68;;;;;;;13.84;100.00;97020.34;4985336;28;20050;-69
2022/10/26 08:43:16;;;;;;;9.43;5.78;;;;;;;14.11;100.00;97015.44;4980943;28;20054;-69
2022/10/26 08:45:52;;;;;;;10.35;5.95;;;;;;;14.42;100.00;97021.59;4976909;28;20055;-71
2022/10/26 08:48:23;;;;;;;17.13;8.30;;;;;;;14.21;100.00;97029.72;4974441;28;20042;-70
2022/10/26 08:50:54;;;;;;;11.27;6.53;;;;;;;13.79;100.00;97037.22;4970292;28;20517;-70
2022/10/26 08:53:32;;;;;;;10.15;5.82;;;;;;;13.93;100.00;97044.81;4966038;28;20053;-70
2022/10/26 08:56:39;;;;;;;11.35;5.78;;;;;;;13.82;100.00;97035.69;4974157;28;20058;-70
2022/10/26 08:59:13;;;;;;;13.77;5.95;;;;;;;13.73;100.00;97033.22;4974798;28;20452;-69
2022/10/26 09:01:38;;;;;;;9.07;5.20;;;;;;;14.09;100.00;97041.81;4977373;28;20479;-70
2022/10/26 09:04:10;;;;;;;10.75;6.45;;;;;;;14.33;100.00;97045.91;4979508;28;20154;-69
2022/10/26 09:06:56;;;;;;;10.05;5.25;;;;;;;14.58;100.00;97048.84;4984093;28;20118;-71
2022/10/26 09:09:40;;;;;;;11.60;5.28;;;;;;;14.91;100.00;97042.34;4945211;28;20106;-70
2022/10/26 09:12:38;;;;;;;7.88;4.90;;;;;;;15.45;100.00;97061.88;4961460;28;20037;-69
2022/10/26 09:15:21;;;;;;;11.02;4.78;;;;;;;15.99;100.00;97063.97;4961905;28;20043;-68
2022/10/26 09:18:16;;;;;;;9.23;4.25;;;;;;;16.59;100.00;97059.59;4984583;28;20122;-70
2022/10/26 09:21:02;;;;;;;9.68;4.28;;;;;;;17.25;100.00;97064.59;4962435;28;20122;-70
2022/10/26 09:23:55;;;;;;;12.23;4.65;;;;;;;17.63;100.00;97072.28;4973727;28;20123;-70
2022/10/26 09:26:54;;;;;;;8.60;4.60;;;;;;;17.80;100.00;97082.50;4971717;28;20038;-71
2022/10/26 09:29:30;;;;;;;9.95;4.70;;;;;;;17.18;100.00;97090.31;4973267;28;20053;-71
2022/10/26 09:31:59;;;;;;;9.15;4.57;;;;;;;17.52;100.00;97083.44;4998982;28;20042;-70
2022/10/26 09:34:36;;;;;;;13.55;8.68;;;;;;;17.13;100.00;97089.94;4980871;28;20606;-71
2022/10/26 09:37:14;;;;;;;18.70;11.55;;;;;;;18.37;100.00;97088.88;4985438;28;20038;-71
2022/10/26 09:40:20;;;;;;;8.73;4.68;;;;;;;18.88;100.00;97090.00;4985610;28;20112;-70
2022/10/26 09:42:57;;;;;;;13.25;4.57;;;;;;;19.09;100.00;97098.09;4980275;28;20041;-71
2022/10/26 09:45:33;;;;;;;8.65;3.65;;;;;;;20.00;93.51;97090.19;4977163;28;20116;-72
2022/10/26 09:48:06;;;;;;;8.85;3.42;;;;;;;21.06;83.21;97096.41;4979868;28;20045;-70
2022/10/26 09:50:37;;;;;;;7.20;2.65;;;;;;;22.20;75.00;97098.03;4983115;28;20042;-71
2022/10/26 09:53:03;;;;;;;8.80;3.50;;;;;;;22.33;75.70;97098.16;4980850;28;20388;-71
2022/10/26 09:55:31;;;;;;;7.22;3.35;;;;;;;22.32;72.63;97100.16;4982349;28;20053;-71
2022/10/26 09:58:01;;;;;;;10.35;3.22;;;;;;;21.92;71.14;97103.03;4959062;28;20057;-70
2022/10/26 10:00:27;;;;;;;;;;;;;;;23.26;68.38;97115.34;4972966;28;20153;-72
2022/10/26 10:02:57;;;;;;;9.75;2.30;;;;;;;23.07;62.97;97117.03;4974705;28;20250;-71
2022/10/26 10:05:34;;;;;;;7.90;2.60;;;;;;;22.59;69.67;97118.66;4975865;28;20057;-72
2022/10/26 10:08:25;;;;;;;8.60;2.97;;;;;;;22.77;68.80;97111.84;4989600;28;20042;-70
2022/10/26 10:11:05;;;;;;;13.70;3.60;;;;;;;22.77;66.53;97123.78;4986959;28;20057;-71
2022/10/26 10:13:36;;;;;;;10.15;4.38;;;;;;;23.28;62.95;97126.06;4966319;28;20502;-72
2022/10/26 10:16:10;;;;;;;10.95;2.63;;;;;;;22.80;65.73;97119.34;4990187;28;20081;-70
2022/10/26 10:18:37;;;;;;;9.18;2.55;;;;;;;22.11;67.97;97123.75;4992603;28;20094;-72
2022/10/26 10:21:04;;;;;;;9.10;3.00;;;;;;;21.68;69.97;97121.91;4988677;28;20503;-69
2022/10/26 10:23:47;;;;;;;7.95;3.08;;;;;;;21.81;69.75;97112.88;4980821;28;20038;-72
2022/10/26 10:26:13;;;;;;;15.18;3.88;;;;;;;22.41;68.32;97123.88;4979808;28;20070;-71
2022/10/26 10:28:43;;;;;;;18.60;5.38;;;;;;;22.78;66.43;97133.75;4986346;28;20043;-72
2022/10/26 10:31:21;;;;;;;8.43;3.30;;;;;;;22.58;66.48;97130.25;4977480;28;20081;-72
2022/10/26 10:33:48;;;;;;;8.18;3.55;;;;;;;22.32;68.66;97136.44;4984978;28;20038;-71
2022/10/26 10:36:22;;;;;;;10.13;3.88;;;;;;;22.84;67.91;97131.19;4980039;28;20050;-71
2022/10/26 10:38:50;;;;;;;21.63;5.07;;;;;;;23.04;66.85;97131.88;4986775;28;20078;-71
2022/10/26 10:41:20;;;;;;;11.13;3.80;;;;;;;23.63;62.90;97129.09;4983558;28;20045;-72
2022/10/26 10:43:59;;;;;;;15.30;5.60;;;;;;;23.61;62.90;97131.56;4984267;28;20092;-72
2022/10/26 10:46:26;;;;;;;13.77;6.95;;;;;;;23.48;64.39;97134.31;4980858;28;20049;-72
2022/10/26 10:49:02;;;;;;;12.65;6.10;;;;;;;23.03;66.82;97133.09;4984029;28;20074;-71
2022/10/26 10:51:33;;;;;;;12.75;5.82;;;;;;;22.56;67.91;97129.91;4970187;28;20066;-71
2022/10/26 10:53:59;;;;;;;12.93;5.80;;;;;;;21.50;70.29;97125.06;4977889;28;20073;-71
2022/10/26 10:56:33;;;;;;;11.88;5.60;;;;;;;19.70;85.45;97121.59;4971635;28;20487;-71
2022/10/26 10:59:37;;;;;;;13.70;6.70;;;;;;;19.56;88.70;97125.31;4977572;28;20038;-73
2022/10/26 11:02:15;;;;;;;12.52;6.43;;;;;;;19.12;90.42;97124.22;4969507;28;20522;-69
2022/10/26 11:04:51;;;;;;;14.05;6.95;;;;;;;19.33;93.88;97122.44;4981885;28;20058;-70
2022/10/26 11:07:18;;;;;;;12.65;7.55;;;;;;;19.30;94.49;97126.81;4983059;28;20038;-72
2022/10/26 11:09:46;;;;;;;34.28;19.50;;;;;;;18.89;95.63;97130.44;4982538;28;20042;-71
2022/10/26 11:12:20;;;;;;;18.50;7.18;;;;;;;18.98;94.31;97130.75;4977413;28;20146;-73
2022/10/26 11:14:59;;;;;;;21.50;6.93;;;;;;;20.11;85.22;97128.97;4986780;28;20049;-71
2022/10/26 11:17:30;;;;;;;11.03;6.17;;;;;;;20.82;82.01;97143.00;4951985;28;20043;-71
2022/10/26 11:20:04;;;;;;;11.93;6.22;;;;;;;20.23;83.99;97139.53;4963714;28;20070;-71
2022/10/26 11:22:36;;;;;;;12.57;6.03;;;;;;;20.97;82.11;97147.09;4976617;28;20438;-72
2022/10/26 11:25:21;;;;;;;12.88;6.78;;;;;;;22.00;77.66;97145.50;4962568;28;20102;-71
2022/10/26 11:28:28;;;;;;;10.30;5.95;;;;;;;23.39;68.81;97143.34;4977928;28;20038;-71
2022/10/26 11:30:59;;;;;;;16.17;5.88;;;;;;;24.57;63.07;97152.28;4960082;28;20062;-71
2022/10/26 11:33:31;;;;;;;11.25;5.93;;;;;;;25.02;60.40;97148.38;4942793;28;20046;-70
2022/10/26 11:36:01;;;;;;;9.60;4.13;;;;;;;25.51;58.75;97149.91;4961782;28;20047;-72
2022/10/26 11:38:54;;;;;;;9.00;3.28;;;;;;;25.54;57.65;97152.59;4959248;28;20035;-71